createdAt,value
2022-11-13T00:02:51.451Z,80.25
2022-11-13T00:05:39.451Z,80.09
2022-11-13T00:08:26.450Z,80.16
2022-11-13T00:11:20.618Z,80.14
2022-11-13T00:14:10.205Z,80.14
2022-11-13T00:16:56.861Z,80.02
2022-11-13T00:19:49.749Z,80.15
2022-11-13T00:22:39.466Z,80.22
2022-11-13T00:25:29.304Z,80.16
2022-11-13T00:28:16.720Z,80.17
2022-11-13T00:31:12.183Z,80.26
2022-11-13T00:37:07.626Z,80.48
2022-11-13T00:39:59.422Z,80.31
2022-11-13T00:42:46.550Z,80.38
2022-11-13T00:45:33.326Z,80.30
2022-11-13T00:48:20.828Z,80.39
2022-11-13T00:51:07.618Z,80.57
2022-11-13T00:53:54.370Z,80.47
2022-11-13T00:56:40.924Z,80.36
2022-11-13T00:59:27.495Z,80.27
2022-11-13T01:02:15.425Z,80.51
2022-11-13T01:05:03.263Z,80.45
2022-11-13T01:07:52.000Z,80.56
2022-11-13T01:10:52.092Z,80.59
2022-11-13T01:13:41.943Z,80.42
2022-11-13T01:16:29.534Z,80.39
2022-11-13T01:19:18.394Z,80.43
2022-11-13T01:22:04.797Z,80.48
2022-11-13T01:24:52.064Z,80.52
2022-11-13T01:27:39.567Z,80.52
2022-11-13T01:30:26.197Z,80.52
2022-11-13T01:33:12.782Z,80.48
2022-11-13T01:36:02.843Z,80.56
2022-11-13T01:39:15.402Z,80.61
2022-11-13T01:42:05.091Z,80.65
2022-11-13T01:45:02.088Z,80.66
2022-11-13T01:47:49.010Z,80.70
2022-11-13T01:50:35.701Z,80.66
2022-11-13T01:53:24.524Z,80.64
2022-11-13T01:56:12.612Z,80.68
2022-11-13T01:59:07.046Z,80.59
2022-11-13T02:01:54.603Z,80.62
2022-11-13T02:04:41.612Z,80.58
2022-11-13T02:07:29.461Z,80.65
2022-11-13T02:10:16.910Z,80.47
2022-11-13T02:13:04.638Z,80.62
2022-11-13T02:15:54.078Z,80.52
2022-11-13T02:18:43.159Z,80.50
2022-11-13T02:21:46.437Z,80.53
2022-11-13T02:24:40.172Z,80.43
2022-11-13T02:27:50.631Z,80.47
2022-11-13T02:30:40.075Z,80.32
2022-11-13T02:33:28.139Z,80.42
2022-11-13T02:36:16.677Z,80.37
2022-11-13T02:39:23.546Z,80.28
2022-11-13T02:42:11.899Z,80.30
2022-11-13T02:44:58.552Z,80.16
2022-11-13T02:47:45.654Z,80.12
2022-11-13T02:50:33.226Z,80.10
2022-11-13T02:53:20.275Z,80.03
2022-11-13T02:56:07.124Z,80.02
2022-11-13T02:58:53.898Z,80.01
2022-11-13T03:01:40.672Z,80.09
2022-11-13T03:04:44.000Z,80.08
2022-11-13T03:07:35.116Z,80.05
2022-11-13T03:10:21.940Z,80.08
2022-11-13T03:13:08.236Z,80.07
2022-11-13T03:15:54.734Z,80.09
2022-11-13T03:18:41.876Z,80.15
2022-11-13T03:21:28.748Z,80.22
2022-11-13T03:24:15.919Z,80.24
2022-11-13T03:27:02.606Z,80.26
2022-11-13T03:29:49.465Z,80.14
2022-11-13T03:32:38.487Z,80.13
2022-11-13T03:35:30.467Z,80.33
2022-11-13T03:38:18.019Z,80.15
2022-11-13T03:41:05.257Z,80.28
2022-11-13T03:43:51.751Z,80.26
2022-11-13T03:46:38.647Z,80.25
2022-11-13T03:49:25.985Z,80.16
2022-11-13T03:52:13.789Z,80.08
2022-11-13T03:55:00.727Z,80.06
2022-11-13T03:57:50.530Z,80.11
2022-11-13T04:00:42.284Z,80.19
2022-11-13T04:03:30.740Z,80.18
2022-11-13T04:06:19.335Z,80.08
2022-11-13T04:09:07.673Z,80.13
2022-11-13T04:11:54.312Z,80.14
2022-11-13T04:14:41.974Z,80.24
2022-11-13T04:17:29.223Z,80.28
2022-11-13T04:20:16.271Z,80.18
2022-11-13T04:23:07.984Z,80.26
2022-11-13T04:25:55.808Z,80.39
2022-11-13T04:28:45.679Z,80.33
2022-11-13T04:31:32.360Z,80.30
2022-11-13T04:34:20.363Z,80.51
2022-11-13T04:37:08.253Z,80.45
2022-11-13T04:39:55.181Z,80.50
2022-11-13T04:42:51.052Z,80.51
2022-11-13T04:45:39.041Z,80.55
2022-11-13T04:48:27.835Z,80.61
2022-11-13T04:51:14.913Z,80.47
2022-11-13T04:54:02.442Z,80.43
2022-11-13T04:56:49.072Z,80.50
2022-11-13T04:59:35.958Z,80.53
2022-11-13T05:02:22.912Z,80.50
2022-11-13T05:05:09.391Z,80.50
2022-11-13T05:07:56.086Z,80.46
2022-11-13T05:10:44.604Z,80.49
2022-11-13T05:13:35.585Z,80.59
2022-11-13T05:16:22.647Z,80.52
2022-11-13T05:19:10.503Z,80.60
2022-11-13T05:21:57.918Z,80.59
2022-11-13T05:24:44.899Z,80.61
2022-11-13T05:27:32.013Z,80.64
2022-11-13T05:30:18.767Z,80.67
2022-11-13T05:33:05.304Z,80.59
2022-11-13T05:35:54.521Z,80.59
2022-11-13T05:38:58.497Z,80.78
2022-11-13T05:41:45.233Z,80.58
2022-11-13T05:47:41.806Z,80.59
2022-11-13T05:50:29.066Z,80.50
2022-11-13T05:56:45.618Z,80.53
2022-11-13T05:59:34.539Z,80.43
2022-11-13T06:02:23.357Z,80.52
2022-11-13T06:05:10.159Z,80.55
2022-11-13T06:08:05.276Z,80.55
2022-11-13T06:15:53.747Z,80.50
2022-11-13T06:18:46.142Z,80.64
2022-11-13T06:21:37.733Z,80.58
2022-11-13T06:24:24.687Z,80.44
2022-11-13T06:27:11.604Z,80.44
2022-11-13T06:30:04.997Z,80.49
2022-11-13T06:33:18.350Z,80.55
2022-11-13T06:36:10.648Z,80.52
2022-11-13T06:38:58.948Z,80.48
2022-11-13T06:41:46.162Z,80.48
2022-11-13T06:44:34.144Z,80.49
2022-11-13T06:47:23.494Z,80.63
2022-11-13T06:50:10.455Z,80.72
2022-11-13T06:52:58.389Z,80.71
2022-11-13T06:56:14.041Z,80.62
2022-11-13T06:59:00.974Z,80.67
2022-11-13T07:01:52.708Z,81.01
2022-11-13T07:05:08.215Z,81.02
2022-11-13T07:07:56.244Z,81.13
2022-11-13T07:10:44.483Z,81.16
2022-11-13T07:13:34.636Z,80.97
2022-11-13T07:16:23.489Z,81.13
2022-11-13T07:19:10.627Z,81.16
2022-11-13T07:21:58.508Z,81.16
2022-11-13T07:24:46.587Z,81.13
2022-11-13T07:30:37.322Z,81.22
2022-11-13T07:33:33.301Z,81.29
2022-11-13T07:36:34.332Z,81.35
2022-11-13T07:39:26.458Z,81.24
2022-11-13T07:42:14.008Z,81.10
2022-11-13T07:45:07.050Z,80.83
2022-11-13T07:48:03.630Z,81.05
2022-11-13T07:50:52.148Z,81.09
2022-11-13T07:53:40.748Z,81.20
2022-11-13T07:56:40.102Z,81.24
2022-11-13T07:59:32.361Z,81.17
2022-11-13T08:02:28.726Z,81.22
2022-11-13T08:05:30.322Z,80.85
2022-11-13T08:08:18.079Z,80.92
2022-11-13T08:11:07.411Z,80.74
2022-11-13T08:13:54.552Z,80.75
2022-11-13T08:19:56.826Z,80.76
2022-11-13T08:22:44.095Z,80.76
2022-11-13T08:25:37.024Z,80.65
2022-11-13T08:28:38.444Z,80.91
2022-11-13T08:31:27.726Z,81.53
2022-11-13T08:34:15.189Z,81.85
2022-11-13T08:40:04.089Z,80.78
2022-11-13T08:42:54.813Z,80.87
2022-11-13T08:46:27.930Z,81.13
2022-11-13T08:49:30.472Z,80.87
2022-11-13T08:52:19.177Z,80.80
2022-11-13T08:55:10.889Z,80.64
2022-11-13T08:58:05.675Z,80.71
2022-11-13T09:00:53.660Z,80.71
2022-11-13T09:04:07.994Z,80.70
2022-11-13T09:07:03.680Z,80.33
2022-11-13T09:09:54.519Z,80.37
2022-11-13T09:12:44.820Z,80.37
2022-11-13T09:16:01.534Z,80.07
2022-11-13T09:19:03.254Z,80.03
2022-11-13T09:21:57.287Z,79.84
2022-11-13T09:24:46.890Z,79.83
2022-11-13T09:27:34.408Z,79.74
2022-11-13T09:30:20.968Z,79.66
2022-11-13T09:33:08.007Z,79.71
2022-11-13T09:36:33.325Z,79.60
2022-11-13T09:39:24.503Z,79.37
2022-11-13T09:42:22.518Z,79.32
2022-11-13T09:45:14.402Z,79.08
2022-11-13T09:48:37.232Z,79.01
2022-11-13T09:51:39.291Z,78.79
2022-11-13T09:54:43.004Z,78.68
2022-11-13T09:57:57.099Z,78.98
2022-11-13T10:00:44.333Z,78.81
2022-11-13T10:04:03.265Z,78.89
2022-11-13T10:07:11.705Z,79.01
2022-11-13T10:11:20.795Z,78.92
2022-11-13T10:14:46.181Z,78.64
2022-11-13T10:18:28.095Z,78.48
2022-11-13T10:21:47.273Z,78.37
2022-11-13T10:24:49.294Z,78.22
2022-11-13T10:32:57.209Z,78.14
2022-11-13T10:36:14.664Z,77.99
2022-11-13T10:39:09.490Z,77.97
2022-11-13T10:41:59.909Z,77.97
2022-11-13T10:45:00.368Z,77.87
2022-11-13T10:48:03.846Z,77.91
2022-11-13T10:51:07.934Z,77.88
2022-11-13T10:53:56.160Z,77.71
2022-11-13T10:56:51.721Z,77.82
2022-11-13T11:00:26.116Z,77.81
2022-11-13T11:03:22.737Z,77.71
2022-11-13T11:06:10.968Z,77.38
2022-11-13T11:09:16.779Z,77.33
2022-11-13T11:15:59.021Z,77.18
2022-11-13T11:19:00.769Z,77.17
2022-11-13T11:21:54.003Z,77.18
2022-11-13T11:28:36.074Z,77.22
2022-11-13T11:31:35.536Z,77.24
2022-11-13T11:34:26.714Z,77.23
2022-11-13T11:37:39.525Z,77.06
2022-11-13T11:44:17.956Z,76.74
2022-11-13T11:47:15.030Z,76.98
2022-11-13T11:50:05.141Z,76.89
2022-11-13T11:53:14.115Z,76.89
2022-11-13T11:56:25.916Z,76.91
2022-11-13T11:59:23.587Z,76.94
2022-11-13T12:02:31.234Z,77.18
2022-11-13T12:06:16.133Z,77.08
2022-11-13T12:09:21.006Z,77.05
2022-11-13T12:12:36.709Z,77.16
2022-11-13T12:16:11.947Z,77.20
2022-11-13T12:19:11.230Z,77.23
2022-11-13T12:22:39.672Z,77.40
2022-11-13T12:25:42.489Z,77.17
2022-11-13T12:28:42.904Z,77.27
2022-11-13T12:32:28.073Z,77.33
2022-11-13T12:35:21.430Z,77.33
2022-11-13T12:38:09.996Z,77.41
2022-11-13T12:41:08.401Z,77.46
2022-11-13T12:44:07.081Z,77.53
2022-11-13T12:46:57.024Z,77.13
2022-11-13T12:49:45.544Z,77.11
2022-11-13T12:52:33.316Z,77.24
2022-11-13T12:55:31.189Z,77.28
2022-11-13T12:58:30.629Z,77.30
2022-11-13T13:01:21.479Z,77.38
2022-11-13T13:04:57.790Z,77.24
2022-11-13T13:08:15.199Z,77.21
2022-11-13T13:11:31.287Z,77.20
2022-11-13T13:14:45.705Z,77.37
2022-11-13T13:17:33.559Z,77.19
2022-11-13T13:20:21.329Z,77.34
2022-11-13T13:23:15.413Z,77.13
2022-11-13T13:26:18.963Z,77.35
2022-11-13T13:29:27.465Z,77.46
2022-11-13T13:32:37.877Z,77.38
2022-11-13T13:36:01.659Z,77.43
2022-11-13T13:39:19.993Z,77.50
2022-11-13T13:42:26.004Z,77.63
2022-11-13T13:45:48.801Z,77.96
2022-11-13T13:48:49.932Z,77.97
2022-11-13T13:51:55.479Z,77.86
2022-11-13T13:54:45.531Z,77.88
2022-11-13T13:57:32.692Z,78.16
2022-11-13T14:00:29.071Z,78.14
2022-11-13T14:03:21.629Z,78.11
2022-11-13T14:06:25.018Z,78.14
2022-11-13T14:09:21.143Z,78.17
2022-11-13T14:15:32.646Z,78.43
2022-11-13T14:18:22.978Z,78.35
2022-11-13T14:21:31.760Z,78.53
2022-11-13T14:24:34.369Z,78.44
2022-11-13T14:27:29.369Z,78.54
2022-11-13T14:30:28.460Z,78.53
2022-11-13T14:33:22.163Z,78.64
2022-11-13T14:36:09.336Z,78.67
2022-11-13T14:39:02.937Z,78.84
2022-11-13T14:42:04.014Z,78.69
2022-11-13T14:44:52.353Z,78.98
2022-11-13T14:47:39.761Z,79.12
2022-11-13T14:50:32.197Z,79.23
2022-11-13T14:53:54.137Z,79.15
2022-11-13T14:56:44.176Z,79.32
2022-11-13T14:59:37.197Z,79.43
2022-11-13T15:02:27.745Z,79.67
2022-11-13T15:05:25.151Z,79.78
2022-11-13T15:08:34.926Z,79.85
2022-11-13T15:11:24.737Z,79.80
2022-11-13T15:14:18.711Z,79.84
2022-11-13T15:17:33.661Z,79.91
2022-11-13T15:20:24.573Z,79.90
2022-11-13T15:23:19.218Z,80.12
2022-11-13T15:26:06.811Z,80.04
2022-11-13T15:28:53.980Z,80.11
2022-11-13T15:31:45.656Z,80.19
2022-11-13T15:34:34.263Z,80.31
2022-11-13T15:37:26.994Z,80.39
2022-11-13T15:40:18.554Z,80.42
2022-11-13T15:43:21.711Z,80.45
2022-11-13T15:46:41.012Z,80.70
2022-11-13T15:49:30.458Z,80.82
2022-11-13T15:52:22.153Z,80.75
2022-11-13T15:55:30.156Z,80.68
2022-11-13T15:58:17.314Z,80.88
2022-11-13T16:01:07.137Z,80.93
2022-11-13T16:03:59.131Z,80.98
2022-11-13T16:06:50.203Z,81.03
2022-11-13T16:09:38.157Z,80.97
2022-11-13T16:12:30.970Z,80.95
2022-11-13T16:16:11.566Z,81.02
2022-11-13T16:19:00.432Z,81.14
2022-11-13T16:21:50.442Z,81.11
2022-11-13T16:24:48.322Z,81.29
2022-11-13T16:27:36.269Z,81.51
2022-11-13T16:30:31.585Z,81.48
2022-11-13T16:33:20.038Z,81.54
2022-11-13T16:36:16.737Z,81.62
2022-11-13T16:39:06.345Z,81.63
2022-11-13T16:41:56.735Z,81.93
2022-11-13T16:44:48.196Z,81.80
2022-11-13T16:47:35.778Z,81.67
2022-11-13T16:50:31.201Z,81.85
2022-11-13T16:53:22.107Z,81.74
2022-11-13T16:56:16.370Z,81.73
2022-11-13T16:59:10.225Z,81.91
2022-11-13T17:02:01.174Z,81.64
2022-11-13T17:04:49.439Z,81.57
2022-11-13T17:07:40.051Z,81.33
2022-11-13T17:10:31.903Z,81.63
2022-11-13T17:13:22.632Z,81.65
2022-11-13T17:16:27.556Z,81.58
2022-11-13T17:19:21.877Z,81.60
2022-11-13T17:22:13.063Z,81.59
2022-11-13T17:24:59.995Z,81.56
2022-11-13T17:27:49.140Z,81.85
2022-11-13T17:30:37.523Z,81.85
2022-11-13T17:33:26.639Z,82.01
2022-11-13T17:36:19.364Z,81.86
2022-11-13T17:39:06.470Z,82.01
2022-11-13T17:41:54.542Z,82.23
2022-11-13T17:44:44.027Z,82.36
2022-11-13T17:47:44.094Z,82.11
2022-11-13T17:50:40.072Z,82.02
2022-11-13T17:53:28.161Z,81.97
2022-11-13T17:56:20.825Z,82.20
2022-11-13T17:59:11.383Z,82.25
2022-11-13T18:02:00.734Z,82.30
2022-11-13T18:04:50.656Z,82.47
2022-11-13T18:07:40.515Z,82.34
2022-11-13T18:10:28.642Z,82.22
2022-11-13T18:13:21.603Z,82.18
2022-11-13T18:16:21.969Z,82.15
2022-11-13T18:19:09.624Z,82.35
2022-11-13T18:22:00.914Z,82.26
2022-11-13T18:24:48.351Z,82.14
2022-11-13T18:27:37.570Z,82.25
2022-11-13T18:30:25.257Z,82.23
2022-11-13T18:33:14.363Z,82.38
2022-11-13T18:36:03.040Z,82.46
2022-11-13T18:38:54.180Z,82.65
2022-11-13T18:41:42.674Z,82.68
2022-11-13T18:44:46.545Z,82.56
2022-11-13T18:47:37.377Z,82.57
2022-11-13T18:50:24.334Z,82.46
2022-11-13T18:53:24.964Z,82.58
2022-11-13T18:56:15.076Z,82.39
2022-11-13T18:59:05.791Z,82.53
2022-11-13T19:01:52.824Z,82.68
2022-11-13T19:04:43.088Z,82.56
2022-11-13T19:07:29.873Z,82.65
2022-11-13T19:10:18.065Z,82.73
2022-11-13T19:13:05.897Z,82.57
2022-11-13T19:15:55.506Z,82.49
2022-11-13T19:18:47.265Z,82.53
2022-11-13T19:21:36.874Z,82.63
2022-11-13T19:24:25.058Z,82.81
2022-11-13T19:27:35.279Z,82.64
2022-11-13T19:30:29.242Z,82.68
2022-11-13T19:33:17.488Z,82.66
2022-11-13T19:36:15.190Z,82.57
2022-11-13T19:39:28.010Z,82.64
2022-11-13T19:42:18.714Z,82.39
2022-11-13T19:45:09.112Z,82.45
2022-11-13T19:47:57.682Z,82.34
2022-11-13T19:50:47.794Z,82.42
2022-11-13T19:53:38.345Z,82.38
2022-11-13T19:56:30.721Z,82.22
2022-11-13T19:59:22.867Z,82.35
2022-11-13T20:02:11.409Z,82.32
2022-11-13T20:05:02.108Z,82.27
2022-11-13T20:07:51.799Z,82.24
2022-11-13T20:10:39.329Z,82.24
2022-11-13T20:13:26.091Z,82.31
2022-11-13T20:16:17.549Z,82.22
2022-11-13T20:19:06.576Z,82.29
2022-11-13T20:21:54.073Z,82.28
2022-11-13T20:24:40.843Z,82.20
2022-11-13T20:27:31.273Z,82.22
2022-11-13T20:30:19.433Z,82.30
2022-11-13T20:33:06.752Z,82.47
2022-11-13T20:35:54.625Z,82.56
2022-11-13T20:38:47.890Z,82.69
2022-11-13T20:41:35.959Z,82.65
2022-11-13T20:44:22.952Z,82.67
2022-11-13T20:47:11.459Z,82.77
2022-11-13T20:49:57.944Z,82.80
2022-11-13T20:52:45.228Z,82.86
2022-11-13T20:55:32.501Z,82.85
2022-11-13T20:58:19.344Z,82.98
2022-11-13T21:01:18.172Z,82.98
2022-11-13T21:04:05.548Z,82.89
2022-11-13T21:06:58.344Z,83.05
2022-11-13T21:09:48.937Z,82.93
2022-11-13T21:12:37.970Z,83.09
2022-11-13T21:15:25.006Z,82.98
2022-11-13T21:18:11.928Z,83.03
2022-11-13T21:21:10.747Z,82.91
2022-11-13T21:23:59.080Z,83.01
2022-11-13T21:26:50.171Z,82.94
2022-11-13T21:29:38.659Z,83.11
2022-11-13T21:32:25.593Z,83.23
2022-11-13T21:35:18.566Z,83.22
2022-11-13T21:38:08.739Z,83.07
2022-11-13T21:41:23.443Z,83.28
2022-11-13T21:44:10.969Z,83.29
2022-11-13T21:47:00.036Z,83.30
2022-11-13T21:49:46.832Z,83.20
2022-11-13T21:52:33.667Z,83.30
2022-11-13T21:55:21.058Z,83.36
2022-11-13T21:58:09.170Z,83.38
2022-11-13T22:00:55.659Z,83.42
2022-11-13T22:03:42.575Z,83.41
2022-11-13T22:06:31.593Z,83.64
2022-11-13T22:09:22.104Z,83.67
2022-11-13T22:12:10.294Z,83.62
2022-11-13T22:14:57.033Z,83.66
2022-11-13T22:17:43.489Z,83.72
2022-11-13T22:20:31.620Z,83.98
2022-11-13T22:23:18.471Z,83.77
2022-11-13T22:26:15.935Z,83.79
2022-11-13T22:29:02.490Z,83.86
2022-11-13T22:31:49.129Z,83.95
2022-11-13T22:34:36.827Z,83.93
2022-11-13T22:37:23.362Z,83.87
2022-11-13T22:40:10.544Z,83.94
2022-11-13T22:42:57.094Z,83.91
2022-11-13T22:45:44.723Z,84.02
2022-11-13T22:48:32.248Z,84.14
2022-11-13T22:51:41.247Z,84.13
2022-11-13T22:54:28.889Z,84.22
2022-11-13T22:57:15.833Z,84.25
2022-11-13T23:00:09.518Z,84.29
2022-11-13T23:02:59.641Z,84.30
2022-11-13T23:05:46.431Z,84.31
2022-11-13T23:08:38.774Z,84.33
2022-11-13T23:11:40.193Z,84.28
2022-11-13T23:14:27.431Z,84.31
2022-11-13T23:17:14.292Z,84.50
2022-11-13T23:20:00.977Z,84.51
2022-11-13T23:22:47.717Z,84.37
2022-11-13T23:25:35.753Z,84.32
2022-11-13T23:28:22.939Z,84.56
2022-11-13T23:31:09.916Z,84.53
2022-11-13T23:33:56.838Z,84.50
2022-11-13T23:36:44.176Z,84.60
2022-11-13T23:39:31.315Z,84.55
2022-11-13T23:42:39.185Z,84.58
2022-11-13T23:45:25.989Z,84.64
2022-11-13T23:48:13.020Z,84.44
2022-11-13T23:51:03.442Z,84.52
2022-11-13T23:53:51.015Z,84.70
2022-11-13T23:56:38.436Z,84.60
2022-11-13T23:59:27.142Z,84.63
